sensor_id;sensor_type;location;lat;lon;timestamp;P1;durP1;ratioP1;P2;durP2;ratioP2
72856;SDS011;61360;52.134;4.494;2022-08-03T00:00:58;12.70;;;2.28;;
72856;SDS011;61360;52.134;4.494;2022-08-03T00:03:24;12.88;;;3.00;;
72856;SDS011;61360;52.134;4.494;2022-08-03T00:05:51;16.10;;;2.75;;
72856;SDS011;61360;52.134;4.494;2022-08-03T00:08:18;16.40;;;3.15;;
72856;SDS011;61360;52.134;4.494;2022-08-03T00:10:44;14.40;;;3.05;;
72856;SDS011;61360;52.134;4.494;2022-08-03T00:13:11;9.60;;;2.47;;
72856;SDS011;61360;52.134;4.494;2022-08-03T00:15:41;14.82;;;2.75;;
72856;SDS011;61360;52.134;4.494;2022-08-03T00:18:08;11.60;;;2.67;;
72856;SDS011;61360;52.134;4.494;2022-08-03T00:20:34;15.95;;;3.40;;
72856;SDS011;61360;52.134;4.494;2022-08-03T00:23:01;12.13;;;2.70;;
72856;SDS011;61360;52.134;4.494;2022-08-03T00:25:29;12.98;;;2.92;;
72856;SDS011;61360;52.134;4.494;2022-08-03T00:27:55;11.60;;;2.58;;
72856;SDS011;61360;52.134;4.494;2022-08-03T00:30:22;10.07;;;2.85;;
72856;SDS011;61360;52.134;4.494;2022-08-03T00:32:48;14.32;;;2.90;;
72856;SDS011;61360;52.134;4.494;2022-08-03T00:35:15;13.55;;;3.00;;
72856;SDS011;61360;52.134;4.494;2022-08-03T00:37:42;18.20;;;2.80;;
72856;SDS011;61360;52.134;4.494;2022-08-03T00:40:12;15.02;;;3.28;;
72856;SDS011;61360;52.134;4.494;2022-08-03T00:42:47;9.13;;;2.95;;
72856;SDS011;61360;52.134;4.494;2022-08-03T00:45:25;10.48;;;3.05;;
72856;SDS011;61360;52.134;4.494;2022-08-03T00:47:54;16.33;;;3.15;;
72856;SDS011;61360;52.134;4.494;2022-08-03T00:50:22;11.55;;;2.75;;
72856;SDS011;61360;52.134;4.494;2022-08-03T00:52:52;9.18;;;2.60;;
72856;SDS011;61360;52.134;4.494;2022-08-03T00:55:23;10.88;;;3.10;;
72856;SDS011;61360;52.134;4.494;2022-08-03T00:57:51;13.73;;;2.92;;
72856;SDS011;61360;52.134;4.494;2022-08-03T01:00:25;14.75;;;2.85;;
72856;SDS011;61360;52.134;4.494;2022-08-03T01:02:53;8.10;;;2.50;;
72856;SDS011;61360;52.134;4.494;2022-08-03T01:05:19;13.00;;;2.85;;
72856;SDS011;61360;52.134;4.494;2022-08-03T01:10:55;13.48;;;2.88;;
72856;SDS011;61360;52.134;4.494;2022-08-03T01:13:44;16.00;;;2.83;;
72856;SDS011;61360;52.134;4.494;2022-08-03T01:16:29;14.15;;;3.53;;
72856;SDS011;61360;52.134;4.494;2022-08-03T01:28:32;13.85;;;3.08;;
72856;SDS011;61360;52.134;4.494;2022-08-03T01:31:37;10.68;;;3.38;;
72856;SDS011;61360;52.134;4.494;2022-08-03T01:34:10;13.40;;;3.33;;
72856;SDS011;61360;52.134;4.494;2022-08-03T01:36:47;12.50;;;2.70;;
72856;SDS011;61360;52.134;4.494;2022-08-03T01:39:27;12.63;;;3.17;;
72856;SDS011;61360;52.134;4.494;2022-08-03T01:42:16;18.67;;;3.47;;
72856;SDS011;61360;52.134;4.494;2022-08-03T01:44:45;14.90;;;3.67;;
72856;SDS011;61360;52.134;4.494;2022-08-03T01:47:19;12.93;;;3.20;;
72856;SDS011;61360;52.134;4.494;2022-08-03T01:49:48;12.65;;;3.38;;
72856;SDS011;61360;52.134;4.494;2022-08-03T01:52:17;13.13;;;2.65;;
72856;SDS011;61360;52.134;4.494;2022-08-03T01:54:47;14.50;;;3.20;;
72856;SDS011;61360;52.134;4.494;2022-08-03T01:57:18;13.32;;;3.13;;
72856;SDS011;61360;52.134;4.494;2022-08-03T01:59:48;13.75;;;3.50;;
72856;SDS011;61360;52.134;4.494;2022-08-03T02:02:17;19.73;;;3.78;;
72856;SDS011;61360;52.134;4.494;2022-08-03T02:04:46;10.73;;;2.65;;
72856;SDS011;61360;52.134;4.494;2022-08-03T02:07:17;9.70;;;2.80;;
72856;SDS011;61360;52.134;4.494;2022-08-03T02:09:46;12.93;;;3.45;;
72856;SDS011;61360;52.134;4.494;2022-08-03T02:12:17;11.77;;;2.83;;
72856;SDS011;61360;52.134;4.494;2022-08-03T02:14:45;17.60;;;3.45;;
72856;SDS011;61360;52.134;4.494;2022-08-03T02:17:14;13.48;;;3.38;;
72856;SDS011;61360;52.134;4.494;2022-08-03T02:19:41;10.00;;;2.72;;
72856;SDS011;61360;52.134;4.494;2022-08-03T02:22:10;15.75;;;3.55;;
72856;SDS011;61360;52.134;4.494;2022-08-03T02:24:39;10.73;;;3.17;;
72856;SDS011;61360;52.134;4.494;2022-08-03T02:27:19;14.45;;;3.33;;
72856;SDS011;61360;52.134;4.494;2022-08-03T02:29:54;10.90;;;3.35;;
72856;SDS011;61360;52.134;4.494;2022-08-03T02:32:28;13.80;;;2.83;;
72856;SDS011;61360;52.134;4.494;2022-08-03T02:35:01;15.38;;;3.60;;
72856;SDS011;61360;52.134;4.494;2022-08-03T02:37:35;10.57;;;3.10;;
72856;SDS011;61360;52.134;4.494;2022-08-03T02:40:09;13.70;;;3.28;;
72856;SDS011;61360;52.134;4.494;2022-08-03T02:42:38;11.75;;;3.22;;
72856;SDS011;61360;52.134;4.494;2022-08-03T02:45:09;12.55;;;3.30;;
72856;SDS011;61360;52.134;4.494;2022-08-03T02:47:39;13.15;;;3.30;;
72856;SDS011;61360;52.134;4.494;2022-08-03T02:50:10;16.05;;;4.68;;
72856;SDS011;61360;52.134;4.494;2022-08-03T02:52:41;13.05;;;3.28;;
72856;SDS011;61360;52.134;4.494;2022-08-03T02:55:12;10.13;;;2.92;;
72856;SDS011;61360;52.134;4.494;2022-08-03T02:57:42;12.57;;;3.63;;
72856;SDS011;61360;52.134;4.494;2022-08-03T03:00:12;11.55;;;3.75;;
72856;SDS011;61360;52.134;4.494;2022-08-03T03:02:40;10.23;;;3.13;;
72856;SDS011;61360;52.134;4.494;2022-08-03T03:05:07;13.40;;;4.28;;
72856;SDS011;61360;52.134;4.494;2022-08-03T03:07:36;16.65;;;3.45;;
72856;SDS011;61360;52.134;4.494;2022-08-03T03:10:05;13.25;;;3.28;;
72856;SDS011;61360;52.134;4.494;2022-08-03T03:12:34;14.57;;;3.75;;
72856;SDS011;61360;52.134;4.494;2022-08-03T03:15:04;14.13;;;4.43;;
72856;SDS011;61360;52.134;4.494;2022-08-03T03:17:32;15.48;;;3.70;;
72856;SDS011;61360;52.134;4.494;2022-08-03T03:20:02;9.38;;;2.97;;
72856;SDS011;61360;52.134;4.494;2022-08-03T03:22:30;10.32;;;3.42;;
72856;SDS011;61360;52.134;4.494;2022-08-03T03:25:00;9.95;;;3.95;;
72856;SDS011;61360;52.134;4.494;2022-08-03T03:27:27;13.35;;;3.78;;
72856;SDS011;61360;52.134;4.494;2022-08-03T03:29:56;22.15;;;5.00;;
72856;SDS011;61360;52.134;4.494;2022-08-03T03:32:24;12.75;;;3.85;;
72856;SDS011;61360;52.134;4.494;2022-08-03T03:34:56;11.82;;;3.63;;
72856;SDS011;61360;52.134;4.494;2022-08-03T03:37:25;13.95;;;3.90;;
72856;SDS011;61360;52.134;4.494;2022-08-03T03:39:52;16.23;;;4.10;;
72856;SDS011;61360;52.134;4.494;2022-08-03T03:42:21;15.32;;;4.22;;
72856;SDS011;61360;52.134;4.494;2022-08-03T03:44:48;16.33;;;4.50;;
72856;SDS011;61360;52.134;4.494;2022-08-03T03:47:14;15.93;;;4.05;;
72856;SDS011;61360;52.134;4.494;2022-08-03T03:49:41;12.68;;;3.90;;
72856;SDS011;61360;52.134;4.494;2022-08-03T03:52:09;17.23;;;3.88;;
72856;SDS011;61360;52.134;4.494;2022-08-03T03:54:42;14.18;;;4.30;;
72856;SDS011;61360;52.134;4.494;2022-08-03T03:57:10;14.80;;;4.40;;
72856;SDS011;61360;52.134;4.494;2022-08-03T03:59:40;13.70;;;4.07;;
72856;SDS011;61360;52.134;4.494;2022-08-03T04:02:08;12.55;;;3.83;;
72856;SDS011;61360;52.134;4.494;2022-08-03T04:04:36;12.40;;;4.35;;
72856;SDS011;61360;52.134;4.494;2022-08-03T04:07:24;15.30;;;3.97;;
72856;SDS011;61360;52.134;4.494;2022-08-03T04:10:16;14.55;;;4.40;;
72856;SDS011;61360;52.134;4.494;2022-08-03T04:13:07;11.18;;;3.47;;
72856;SDS011;61360;52.134;4.494;2022-08-03T04:15:37;17.27;;;4.55;;
72856;SDS011;61360;52.134;4.494;2022-08-03T04:18:10;13.40;;;4.47;;
72856;SDS011;61360;52.134;4.494;2022-08-03T04:20:41;16.00;;;4.45;;
72856;SDS011;61360;52.134;4.494;2022-08-03T04:23:13;15.63;;;4.80;;
72856;SDS011;61360;52.134;4.494;2022-08-03T04:25:44;15.43;;;4.13;;
72856;SDS011;61360;52.134;4.494;2022-08-03T04:28:16;17.95;;;4.75;;
72856;SDS011;61360;52.134;4.494;2022-08-03T04:30:45;16.02;;;4.40;;
72856;SDS011;61360;52.134;4.494;2022-08-03T04:33:15;11.88;;;4.15;;
72856;SDS011;61360;52.134;4.494;2022-08-03T04:35:45;12.02;;;4.00;;
72856;SDS011;61360;52.134;4.494;2022-08-03T04:38:14;15.57;;;4.30;;
72856;SDS011;61360;52.134;4.494;2022-08-03T04:40:45;11.93;;;4.13;;
72856;SDS011;61360;52.134;4.494;2022-08-03T04:43:13;14.40;;;4.68;;
72856;SDS011;61360;52.134;4.494;2022-08-03T04:45:45;11.68;;;4.43;;
72856;SDS011;61360;52.134;4.494;2022-08-03T04:48:14;15.60;;;4.90;;
72856;SDS011;61360;52.134;4.494;2022-08-03T04:50:42;17.00;;;4.85;;
72856;SDS011;61360;52.134;4.494;2022-08-03T04:53:09;12.55;;;4.97;;
72856;SDS011;61360;52.134;4.494;2022-08-03T04:55:36;17.85;;;5.50;;
72856;SDS011;61360;52.134;4.494;2022-08-03T04:58:02;18.17;;;4.43;;
72856;SDS011;61360;52.134;4.494;2022-08-03T05:00:29;17.75;;;4.57;;
72856;SDS011;61360;52.134;4.494;2022-08-03T05:02:56;19.42;;;5.78;;
72856;SDS011;61360;52.134;4.494;2022-08-03T05:05:23;15.60;;;4.38;;
72856;SDS011;61360;52.134;4.494;2022-08-03T05:07:49;18.73;;;5.32;;
72856;SDS011;61360;52.134;4.494;2022-08-03T05:10:16;16.20;;;5.00;;
72856;SDS011;61360;52.134;4.494;2022-08-03T05:12:44;17.30;;;4.47;;
72856;SDS011;61360;52.134;4.494;2022-08-03T05:15:13;17.02;;;4.25;;
72856;SDS011;61360;52.134;4.494;2022-08-03T05:17:40;16.83;;;4.95;;
72856;SDS011;61360;52.134;4.494;2022-08-03T05:20:07;16.20;;;5.10;;
72856;SDS011;61360;52.134;4.494;2022-08-03T05:22:35;17.17;;;5.18;;
72856;SDS011;61360;52.134;4.494;2022-08-03T05:25:02;14.40;;;4.45;;
72856;SDS011;61360;52.134;4.494;2022-08-03T05:27:29;17.58;;;4.57;;
72856;SDS011;61360;52.134;4.494;2022-08-03T05:29:56;17.65;;;5.05;;
72856;SDS011;61360;52.134;4.494;2022-08-03T05:32:22;22.17;;;5.05;;
72856;SDS011;61360;52.134;4.494;2022-08-03T05:34:48;13.07;;;4.68;;
72856;SDS011;61360;52.134;4.494;2022-08-03T05:37:15;16.10;;;5.50;;
72856;SDS011;61360;52.134;4.494;2022-08-03T05:39:41;18.45;;;6.05;;
72856;SDS011;61360;52.134;4.494;2022-08-03T05:42:08;21.83;;;5.70;;
72856;SDS011;61360;52.134;4.494;2022-08-03T05:44:35;16.42;;;5.38;;
72856;SDS011;61360;52.134;4.494;2022-08-03T05:47:04;15.57;;;6.00;;
72856;SDS011;61360;52.134;4.494;2022-08-03T05:49:30;16.50;;;5.22;;
72856;SDS011;61360;52.134;4.494;2022-08-03T05:51:57;18.35;;;5.63;;
72856;SDS011;61360;52.134;4.494;2022-08-03T05:54:23;15.73;;;5.38;;
72856;SDS011;61360;52.134;4.494;2022-08-03T05:56:50;17.90;;;6.32;;
72856;SDS011;61360;52.134;4.494;2022-08-03T05:59:16;22.02;;;6.88;;
72856;SDS011;61360;52.134;4.494;2022-08-03T06:01:43;20.92;;;6.55;;
72856;SDS011;61360;52.134;4.494;2022-08-03T06:04:09;18.98;;;6.95;;
72856;SDS011;61360;52.134;4.494;2022-08-03T06:06:36;24.38;;;7.82;;
72856;SDS011;61360;52.134;4.494;2022-08-03T06:09:03;16.52;;;6.65;;
72856;SDS011;61360;52.134;4.494;2022-08-03T06:11:30;20.67;;;7.97;;
72856;SDS011;61360;52.134;4.494;2022-08-03T06:13:56;23.58;;;7.32;;
72856;SDS011;61360;52.134;4.494;2022-08-03T06:16:23;20.45;;;7.55;;
72856;SDS011;61360;52.134;4.494;2022-08-03T06:18:49;24.00;;;8.15;;
72856;SDS011;61360;52.134;4.494;2022-08-03T06:21:15;20.55;;;7.53;;
72856;SDS011;61360;52.134;4.494;2022-08-03T06:23:42;21.42;;;8.38;;
72856;SDS011;61360;52.134;4.494;2022-08-03T06:26:10;21.55;;;7.20;;
72856;SDS011;61360;52.134;4.494;2022-08-03T06:28:37;25.35;;;9.38;;
72856;SDS011;61360;52.134;4.494;2022-08-03T06:31:04;23.80;;;8.48;;
72856;SDS011;61360;52.134;4.494;2022-08-03T06:33:31;20.45;;;9.52;;
72856;SDS011;61360;52.134;4.494;2022-08-03T06:35:57;22.15;;;10.32;;
72856;SDS011;61360;52.134;4.494;2022-08-03T06:38:23;24.05;;;11.25;;
72856;SDS011;61360;52.134;4.494;2022-08-03T06:40:50;25.50;;;10.98;;
72856;SDS011;61360;52.134;4.494;2022-08-03T06:43:16;26.55;;;10.75;;
72856;SDS011;61360;52.134;4.494;2022-08-03T06:45:42;24.08;;;11.63;;
72856;SDS011;61360;52.134;4.494;2022-08-03T06:48:09;23.60;;;11.32;;
72856;SDS011;61360;52.134;4.494;2022-08-03T06:50:38;25.60;;;11.13;;
72856;SDS011;61360;52.134;4.494;2022-08-03T06:53:07;22.67;;;11.63;;
72856;SDS011;61360;52.134;4.494;2022-08-03T06:55:36;25.15;;;12.02;;
72856;SDS011;61360;52.134;4.494;2022-08-03T06:58:03;23.92;;;11.90;;
72856;SDS011;61360;52.134;4.494;2022-08-03T07:00:29;27.15;;;12.40;;
72856;SDS011;61360;52.134;4.494;2022-08-03T07:02:56;30.15;;;13.73;;
72856;SDS011;61360;52.134;4.494;2022-08-03T07:05:24;26.80;;;12.75;;
72856;SDS011;61360;52.134;4.494;2022-08-03T07:07:54;23.60;;;13.10;;
72856;SDS011;61360;52.134;4.494;2022-08-03T07:10:22;21.92;;;13.32;;
72856;SDS011;61360;52.134;4.494;2022-08-03T07:12:50;26.20;;;12.85;;
72856;SDS011;61360;52.134;4.494;2022-08-03T07:15:16;21.42;;;12.30;;
72856;SDS011;61360;52.134;4.494;2022-08-03T07:17:43;23.45;;;12.32;;
72856;SDS011;61360;52.134;4.494;2022-08-03T07:20:09;19.48;;;11.30;;
72856;SDS011;61360;52.134;4.494;2022-08-03T07:22:38;22.92;;;12.45;;
72856;SDS011;61360;52.134;4.494;2022-08-03T07:25:04;25.48;;;12.20;;
72856;SDS011;61360;52.134;4.494;2022-08-03T07:27:31;23.48;;;11.70;;
72856;SDS011;61360;52.134;4.494;2022-08-03T07:29:58;22.15;;;10.23;;
72856;SDS011;61360;52.134;4.494;2022-08-03T07:32:25;28.23;;;10.63;;
72856;SDS011;61360;52.134;4.494;2022-08-03T07:34:53;20.02;;;10.38;;
72856;SDS011;61360;52.134;4.494;2022-08-03T07:37:20;16.60;;;10.10;;
72856;SDS011;61360;52.134;4.494;2022-08-03T07:39:47;19.77;;;10.07;;
72856;SDS011;61360;52.134;4.494;2022-08-03T07:42:13;20.15;;;9.30;;
72856;SDS011;61360;52.134;4.494;2022-08-03T07:44:40;26.48;;;9.90;;
72856;SDS011;61360;52.134;4.494;2022-08-03T07:47:07;21.00;;;8.52;;
72856;SDS011;61360;52.134;4.494;2022-08-03T07:49:37;14.70;;;7.50;;
72856;SDS011;61360;52.134;4.494;2022-08-03T07:52:05;19.38;;;9.07;;
72856;SDS011;61360;52.134;4.494;2022-08-03T07:54:50;19.27;;;8.15;;
72856;SDS011;61360;52.134;4.494;2022-08-03T07:57:17;18.67;;;8.15;;
72856;SDS011;61360;52.134;4.494;2022-08-03T07:59:44;18.48;;;8.57;;
72856;SDS011;61360;52.134;4.494;2022-08-03T08:02:12;21.88;;;7.85;;
72856;SDS011;61360;52.134;4.494;2022-08-03T08:04:39;13.43;;;7.45;;
72856;SDS011;61360;52.134;4.494;2022-08-03T08:07:06;19.58;;;8.50;;
72856;SDS011;61360;52.134;4.494;2022-08-03T08:09:33;31.85;;;8.82;;
72856;SDS011;61360;52.134;4.494;2022-08-03T08:12:00;23.63;;;8.68;;
72856;SDS011;61360;52.134;4.494;2022-08-03T08:14:27;14.07;;;8.23;;
72856;SDS011;61360;52.134;4.494;2022-08-03T08:16:53;19.92;;;8.57;;
72856;SDS011;61360;52.134;4.494;2022-08-03T08:19:19;18.70;;;7.80;;
72856;SDS011;61360;52.134;4.494;2022-08-03T08:21:46;19.60;;;8.35;;
72856;SDS011;61360;52.134;4.494;2022-08-03T08:24:12;17.30;;;8.52;;
72856;SDS011;61360;52.134;4.494;2022-08-03T08:26:39;20.85;;;8.43;;
72856;SDS011;61360;52.134;4.494;2022-08-03T08:29:05;15.45;;;8.40;;
72856;SDS011;61360;52.134;4.494;2022-08-03T08:31:32;19.95;;;8.80;;
72856;SDS011;61360;52.134;4.494;2022-08-03T08:33:59;16.13;;;7.93;;
72856;SDS011;61360;52.134;4.494;2022-08-03T08:36:31;14.10;;;7.20;;
72856;SDS011;61360;52.134;4.494;2022-08-03T08:38:59;20.52;;;7.93;;
72856;SDS011;61360;52.134;4.494;2022-08-03T08:41:26;14.95;;;7.85;;
72856;SDS011;61360;52.134;4.494;2022-08-03T08:43:53;17.75;;;7.78;;
72856;SDS011;61360;52.134;4.494;2022-08-03T08:46:20;17.65;;;7.15;;
72856;SDS011;61360;52.134;4.494;2022-08-03T08:48:47;15.07;;;7.15;;
72856;SDS011;61360;52.134;4.494;2022-08-03T08:51:15;22.52;;;7.88;;
72856;SDS011;61360;52.134;4.494;2022-08-03T08:53:48;18.08;;;7.50;;
72856;SDS011;61360;52.134;4.494;2022-08-03T08:56:18;19.00;;;7.38;;
72856;SDS011;61360;52.134;4.494;2022-08-03T08:58:51;19.05;;;8.07;;
72856;SDS011;61360;52.134;4.494;2022-08-03T09:01:25;15.35;;;6.45;;
72856;SDS011;61360;52.134;4.494;2022-08-03T09:03:52;20.00;;;7.30;;
72856;SDS011;61360;52.134;4.494;2022-08-03T09:06:20;19.45;;;6.45;;
72856;SDS011;61360;52.134;4.494;2022-08-03T09:08:49;15.07;;;7.20;;
72856;SDS011;61360;52.134;4.494;2022-08-03T09:11:19;21.85;;;7.47;;
72856;SDS011;61360;52.134;4.494;2022-08-03T09:13:48;16.50;;;7.25;;
72856;SDS011;61360;52.134;4.494;2022-08-03T09:16:16;26.55;;;7.15;;
72856;SDS011;61360;52.134;4.494;2022-08-03T09:18:47;19.63;;;6.18;;
72856;SDS011;61360;52.134;4.494;2022-08-03T09:23:47;14.35;;;5.47;;
72856;SDS011;61360;52.134;4.494;2022-08-03T09:26:26;11.00;;;5.47;;
72856;SDS011;61360;52.134;4.494;2022-08-03T09:28:57;19.42;;;5.13;;
72856;SDS011;61360;52.134;4.494;2022-08-03T09:31:34;21.25;;;5.60;;
72856;SDS011;61360;52.134;4.494;2022-08-03T09:34:04;13.60;;;4.38;;
72856;SDS011;61360;52.134;4.494;2022-08-03T09:39:16;14.68;;;5.05;;
72856;SDS011;61360;52.134;4.494;2022-08-03T09:42:10;14.20;;;5.38;;
72856;SDS011;61360;52.134;4.494;2022-08-03T09:44:48;12.93;;;4.60;;
72856;SDS011;61360;52.134;4.494;2022-08-03T09:47:26;18.15;;;6.32;;
72856;SDS011;61360;52.134;4.494;2022-08-03T09:50:07;13.52;;;5.00;;
72856;SDS011;61360;52.134;4.494;2022-08-03T09:52:36;17.17;;;4.55;;
72856;SDS011;61360;52.134;4.494;2022-08-03T09:55:08;17.73;;;4.68;;
72856;SDS011;61360;52.134;4.494;2022-08-03T09:57:39;17.20;;;4.53;;
72856;SDS011;61360;52.134;4.494;2022-08-03T10:00:11;17.50;;;5.18;;
72856;SDS011;61360;52.134;4.494;2022-08-03T10:02:42;16.80;;;5.03;;
72856;SDS011;61360;52.134;4.494;2022-08-03T10:05:11;15.38;;;5.05;;
72856;SDS011;61360;52.134;4.494;2022-08-03T10:07:47;17.60;;;4.72;;
72856;SDS011;61360;52.134;4.494;2022-08-03T10:10:16;14.10;;;4.35;;
72856;SDS011;61360;52.134;4.494;2022-08-03T10:12:43;14.27;;;4.15;;
72856;SDS011;61360;52.134;4.494;2022-08-03T10:15:10;13.55;;;4.60;;
72856;SDS011;61360;52.134;4.494;2022-08-03T10:17:37;14.35;;;4.00;;
72856;SDS011;61360;52.134;4.494;2022-08-03T10:20:04;15.75;;;3.97;;
72856;SDS011;61360;52.134;4.494;2022-08-03T10:22:34;12.40;;;4.20;;
72856;SDS011;61360;52.134;4.494;2022-08-03T10:25:08;14.25;;;4.07;;
72856;SDS011;61360;52.134;4.494;2022-08-03T10:27:40;12.98;;;4.28;;
72856;SDS011;61360;52.134;4.494;2022-08-03T10:30:10;23.20;;;4.95;;
72856;SDS011;61360;52.134;4.494;2022-08-03T10:32:41;14.48;;;4.10;;
72856;SDS011;61360;52.134;4.494;2022-08-03T10:35:18;14.05;;;3.35;;
72856;SDS011;61360;52.134;4.494;2022-08-03T10:37:48;17.40;;;4.15;;
72856;SDS011;61360;52.134;4.494;2022-08-03T10:40:25;19.20;;;3.75;;
72856;SDS011;61360;52.134;4.494;2022-08-03T10:42:56;19.15;;;3.92;;
72856;SDS011;61360;52.134;4.494;2022-08-03T10:45:41;13.98;;;4.18;;
72856;SDS011;61360;52.134;4.494;2022-08-03T10:48:10;14.18;;;4.07;;
72856;SDS011;61360;52.134;4.494;2022-08-03T10:50:38;15.45;;;3.83;;
72856;SDS011;61360;52.134;4.494;2022-08-03T10:53:08;14.18;;;3.33;;
72856;SDS011;61360;52.134;4.494;2022-08-03T10:55:41;12.18;;;3.75;;
72856;SDS011;61360;52.134;4.494;2022-08-03T11:01:10;18.08;;;3.88;;
72856;SDS011;61360;52.134;4.494;2022-08-03T11:06:20;9.82;;;3.85;;
72856;SDS011;61360;52.134;4.494;2022-08-03T11:08:50;12.40;;;4.20;;
72856;SDS011;61360;52.134;4.494;2022-08-03T11:14:12;13.43;;;4.88;;
72856;SDS011;61360;52.134;4.494;2022-08-03T11:16:49;10.40;;;3.72;;
72856;SDS011;61360;52.134;4.494;2022-08-03T11:19:42;9.93;;;3.83;;
72856;SDS011;61360;52.134;4.494;2022-08-03T11:22:15;16.23;;;4.43;;
72856;SDS011;61360;52.134;4.494;2022-08-03T11:27:17;14.90;;;3.55;;
72856;SDS011;61360;52.134;4.494;2022-08-03T11:29:58;11.80;;;3.15;;
72856;SDS011;61360;52.134;4.494;2022-08-03T11:35:10;13.25;;;2.72;;
72856;SDS011;61360;52.134;4.494;2022-08-03T11:40:42;15.03;;;2.93;;
72856;SDS011;61360;52.134;4.494;2022-08-03T11:45:56;10.40;;;2.97;;
72856;SDS011;61360;52.134;4.494;2022-08-03T11:48:40;9.73;;;2.63;;
72856;SDS011;61360;52.134;4.494;2022-08-03T11:53:54;11.88;;;2.67;;
72856;SDS011;61360;52.134;4.494;2022-08-03T11:56:21;10.05;;;2.75;;
72856;SDS011;61360;52.134;4.494;2022-08-03T11:58:50;10.05;;;2.75;;
72856;SDS011;61360;52.134;4.494;2022-08-03T12:01:22;12.13;;;2.80;;
72856;SDS011;61360;52.134;4.494;2022-08-03T12:03:50;13.70;;;3.00;;
72856;SDS011;61360;52.134;4.494;2022-08-03T12:06:17;12.55;;;2.67;;
72856;SDS011;61360;52.134;4.494;2022-08-03T12:08:44;13.30;;;2.97;;
72856;SDS011;61360;52.134;4.494;2022-08-03T12:11:12;11.02;;;2.42;;
72856;SDS011;61360;52.134;4.494;2022-08-03T12:13:44;8.45;;;2.05;;
72856;SDS011;61360;52.134;4.494;2022-08-03T12:16:19;12.55;;;2.70;;
72856;SDS011;61360;52.134;4.494;2022-08-03T12:21:27;17.55;;;2.92;;
72856;SDS011;61360;52.134;4.494;2022-08-03T12:23:58;9.32;;;2.60;;
72856;SDS011;61360;52.134;4.494;2022-08-03T12:26:28;9.77;;;2.55;;
72856;SDS011;61360;52.134;4.494;2022-08-03T12:29:20;8.70;;;2.30;;
72856;SDS011;61360;52.134;4.494;2022-08-03T12:31:50;12.70;;;2.90;;
72856;SDS011;61360;52.134;4.494;2022-08-03T12:34:18;13.35;;;2.90;;
72856;SDS011;61360;52.134;4.494;2022-08-03T12:36:51;12.90;;;2.88;;
72856;SDS011;61360;52.134;4.494;2022-08-03T12:39:24;9.57;;;2.60;;
72856;SDS011;61360;52.134;4.494;2022-08-03T12:41:54;12.50;;;3.10;;
72856;SDS011;61360;52.134;4.494;2022-08-03T12:44:32;11.00;;;2.75;;
72856;SDS011;61360;52.134;4.494;2022-08-03T12:47:02;10.88;;;2.45;;
72856;SDS011;61360;52.134;4.494;2022-08-03T12:49:44;11.23;;;2.95;;
72856;SDS011;61360;52.134;4.494;2022-08-03T12:52:12;12.05;;;2.78;;
72856;SDS011;61360;52.134;4.494;2022-08-03T12:54:39;11.40;;;2.55;;
72856;SDS011;61360;52.134;4.494;2022-08-03T12:57:06;9.50;;;2.25;;
72856;SDS011;61360;52.134;4.494;2022-08-03T13:02:17;15.75;;;2.83;;
72856;SDS011;61360;52.134;4.494;2022-08-03T13:04:49;11.48;;;2.80;;
72856;SDS011;61360;52.134;4.494;2022-08-03T13:07:18;14.57;;;3.10;;
72856;SDS011;61360;52.134;4.494;2022-08-03T13:09:49;10.23;;;2.45;;
72856;SDS011;61360;52.134;4.494;2022-08-03T13:12:23;14.20;;;2.67;;
72856;SDS011;61360;52.134;4.494;2022-08-03T13:14:53;10.27;;;2.60;;
72856;SDS011;61360;52.134;4.494;2022-08-03T13:17:23;9.68;;;2.38;;
72856;SDS011;61360;52.134;4.494;2022-08-03T13:19:51;16.33;;;2.70;;
72856;SDS011;61360;52.134;4.494;2022-08-03T13:22:22;11.57;;;2.85;;
72856;SDS011;61360;52.134;4.494;2022-08-03T13:24:56;10.95;;;2.47;;
72856;SDS011;61360;52.134;4.494;2022-08-03T13:27:23;11.20;;;2.42;;
72856;SDS011;61360;52.134;4.494;2022-08-03T13:29:50;10.70;;;2.65;;
72856;SDS011;61360;52.134;4.494;2022-08-03T13:32:18;14.10;;;3.08;;
72856;SDS011;61360;52.134;4.494;2022-08-03T13:34:46;10.73;;;2.88;;
72856;SDS011;61360;52.134;4.494;2022-08-03T13:37:12;11.50;;;2.97;;
72856;SDS011;61360;52.134;4.494;2022-08-03T13:39:40;8.95;;;2.65;;
72856;SDS011;61360;52.134;4.494;2022-08-03T13:42:08;13.15;;;2.58;;
72856;SDS011;61360;52.134;4.494;2022-08-03T13:44:34;11.20;;;2.78;;
72856;SDS011;61360;52.134;4.494;2022-08-03T13:47:02;12.85;;;2.28;;
72856;SDS011;61360;52.134;4.494;2022-08-03T13:49:29;9.88;;;2.80;;
72856;SDS011;61360;52.134;4.494;2022-08-03T13:51:56;12.10;;;2.65;;
72856;SDS011;61360;52.134;4.494;2022-08-03T13:54:22;8.55;;;2.00;;
72856;SDS011;61360;52.134;4.494;2022-08-03T13:56:51;13.27;;;2.65;;
72856;SDS011;61360;52.134;4.494;2022-08-03T13:59:20;10.77;;;2.40;;
72856;SDS011;61360;52.134;4.494;2022-08-03T14:01:49;13.25;;;2.15;;
72856;SDS011;61360;52.134;4.494;2022-08-03T14:04:18;9.57;;;2.13;;
72856;SDS011;61360;52.134;4.494;2022-08-03T14:06:46;12.48;;;2.38;;
72856;SDS011;61360;52.134;4.494;2022-08-03T14:09:14;8.48;;;2.65;;
72856;SDS011;61360;52.134;4.494;2022-08-03T14:11:44;9.43;;;1.98;;
72856;SDS011;61360;52.134;4.494;2022-08-03T14:14:11;12.48;;;2.50;;
72856;SDS011;61360;52.134;4.494;2022-08-03T14:16:39;10.45;;;2.00;;
72856;SDS011;61360;52.134;4.494;2022-08-03T14:19:05;9.68;;;2.30;;
72856;SDS011;61360;52.134;4.494;2022-08-03T14:21:32;7.82;;;2.50;;
72856;SDS011;61360;52.134;4.494;2022-08-03T14:23:59;11.10;;;2.20;;
72856;SDS011;61360;52.134;4.494;2022-08-03T14:26:26;7.45;;;2.15;;
72856;SDS011;61360;52.134;4.494;2022-08-03T14:28:53;11.07;;;2.70;;
72856;SDS011;61360;52.134;4.494;2022-08-03T14:31:20;8.68;;;2.40;;
72856;SDS011;61360;52.134;4.494;2022-08-03T14:33:48;4.97;;;1.70;;
72856;SDS011;61360;52.134;4.494;2022-08-03T14:36:15;6.15;;;1.92;;
72856;SDS011;61360;52.134;4.494;2022-08-03T14:38:42;6.40;;;1.67;;
72856;SDS011;61360;52.134;4.494;2022-08-03T14:41:08;5.40;;;1.33;;
72856;SDS011;61360;52.134;4.494;2022-08-03T14:43:35;5.93;;;1.45;;
72856;SDS011;61360;52.134;4.494;2022-08-03T14:46:02;6.97;;;1.40;;
72856;SDS011;61360;52.134;4.494;2022-08-03T14:48:28;3.95;;;1.33;;
72856;SDS011;61360;52.134;4.494;2022-08-03T14:50:55;4.13;;;1.60;;
72856;SDS011;61360;52.134;4.494;2022-08-03T14:53:21;6.45;;;1.90;;
72856;SDS011;61360;52.134;4.494;2022-08-03T14:55:48;5.32;;;1.70;;
72856;SDS011;61360;52.134;4.494;2022-08-03T14:58:18;7.05;;;1.50;;
72856;SDS011;61360;52.134;4.494;2022-08-03T15:00:50;8.57;;;1.83;;
72856;SDS011;61360;52.134;4.494;2022-08-03T15:03:19;7.60;;;1.55;;
72856;SDS011;61360;52.134;4.494;2022-08-03T15:05:50;4.57;;;1.10;;
72856;SDS011;61360;52.134;4.494;2022-08-03T15:08:19;6.00;;;1.40;;
72856;SDS011;61360;52.134;4.494;2022-08-03T15:10:46;6.53;;;1.58;;
72856;SDS011;61360;52.134;4.494;2022-08-03T15:13:19;7.28;;;1.42;;
72856;SDS011;61360;52.134;4.494;2022-08-03T15:15:47;3.15;;;1.30;;
72856;SDS011;61360;52.134;4.494;2022-08-03T15:18:14;5.85;;;1.63;;
72856;SDS011;61360;52.134;4.494;2022-08-03T15:20:41;3.95;;;1.30;;
72856;SDS011;61360;52.134;4.494;2022-08-03T15:23:07;5.57;;;1.40;;
72856;SDS011;61360;52.134;4.494;2022-08-03T15:25:34;7.22;;;1.50;;
72856;SDS011;61360;52.134;4.494;2022-08-03T15:28:00;3.40;;;1.23;;
72856;SDS011;61360;52.134;4.494;2022-08-03T15:30:27;7.68;;;1.83;;
72856;SDS011;61360;52.134;4.494;2022-08-03T15:32:54;7.10;;;1.83;;
72856;SDS011;61360;52.134;4.494;2022-08-03T15:35:20;8.35;;;1.70;;